createdAt,value
2022-08-03T00:03:46.849Z,100821.59
2022-08-03T00:08:50.343Z,100816.09
2022-08-03T00:13:54.387Z,100817.38
2022-08-03T00:19:00.868Z,100813.81
2022-08-03T00:24:04.975Z,100815.63
2022-08-03T00:29:08.483Z,100806.59
2022-08-03T00:34:13.364Z,100812.78
2022-08-03T00:39:17.203Z,100808.94
2022-08-03T00:44:20.679Z,100810.44
2022-08-03T00:49:25.882Z,100805.41
2022-08-03T00:54:29.595Z,100811.03
2022-08-03T00:59:33.210Z,100799.06
2022-08-03T01:04:38.008Z,100804.84
2022-08-03T01:09:48.740Z,100789.00
2022-08-03T01:14:56.711Z,100796.81
2022-08-03T01:20:04.056Z,100806.22
2022-08-03T01:25:13.668Z,100800.00
2022-08-03T01:30:18.636Z,100794.13
2022-08-03T01:35:38.854Z,100803.28
2022-08-03T01:40:44.426Z,100796.75
2022-08-03T01:45:50.073Z,100795.75
2022-08-03T01:50:55.966Z,100796.16
2022-08-03T01:56:00.144Z,100794.25
2022-08-03T02:01:06.396Z,100790.34
2022-08-03T02:07:00.260Z,100793.63
2022-08-03T02:11:36.151Z,100797.97
2022-08-03T02:16:41.062Z,100799.34
2022-08-03T02:21:56.448Z,100793.88
2022-08-03T02:27:09.304Z,100789.63
2022-08-03T02:32:19.259Z,100788.97
2022-08-03T02:37:27.827Z,100780.69
2022-08-03T02:42:33.632Z,100782.22
2022-08-03T02:47:53.455Z,100780.75
2022-08-03T02:52:58.891Z,100773.88
2022-08-03T02:58:04.107Z,100781.75
2022-08-03T03:03:09.147Z,100772.03
2022-08-03T03:08:18.075Z,100767.28
2022-08-03T03:13:23.088Z,100770.88
2022-08-03T03:18:28.966Z,100771.25
2022-08-03T03:23:34.095Z,100776.22
2022-08-03T03:28:38.072Z,100776.03
2022-08-03T03:33:42.960Z,100780.22
2022-08-03T03:38:46.568Z,100783.47
2022-08-03T03:43:50.625Z,100778.91
2022-08-03T03:48:56.401Z,100774.84
2022-08-03T03:54:01.315Z,100769.88
2022-08-03T03:59:04.775Z,100774.66
2022-08-03T04:04:23.485Z,100774.31
2022-08-03T04:09:44.337Z,100778.88
2022-08-03T04:14:48.106Z,100775.66
2022-08-03T04:19:54.989Z,100773.44
2022-08-03T04:25:08.852Z,100780.75
2022-08-03T04:30:13.186Z,100779.66
2022-08-03T04:35:18.319Z,100787.59
2022-08-03T04:40:24.233Z,100792.31
2022-08-03T04:45:33.987Z,100793.78
2022-08-03T04:50:40.076Z,100800.75
2022-08-03T04:55:43.524Z,100795.59
2022-08-03T05:00:51.004Z,100804.13
2022-08-03T05:06:09.465Z,100803.31
2022-08-03T05:11:14.892Z,100801.66
2022-08-03T05:16:18.437Z,100802.22
2022-08-03T05:21:23.258Z,100801.94
2022-08-03T05:26:26.747Z,100799.41
2022-08-03T05:31:30.408Z,100791.41
2022-08-03T05:36:35.229Z,100790.09
2022-08-03T05:41:38.707Z,100787.25
2022-08-03T05:46:42.160Z,100789.09
2022-08-03T05:51:47.106Z,100785.44
2022-08-03T05:57:03.283Z,100785.34
2022-08-03T06:02:06.819Z,100792.69
2022-08-03T06:07:11.734Z,100789.59
2022-08-03T06:12:15.634Z,100788.16
2022-08-03T06:17:19.297Z,100787.97
2022-08-03T06:22:24.178Z,100783.19
2022-08-03T06:27:37.095Z,100784.88
2022-08-03T06:32:41.979Z,100781.94
2022-08-03T06:37:57.146Z,100794.69
2022-08-03T06:43:01.976Z,100793.22
2022-08-03T06:48:08.926Z,100793.38
2022-08-03T06:53:19.922Z,100797.97
2022-08-03T06:58:25.019Z,100803.66
2022-08-03T07:03:28.782Z,100806.56
2022-08-03T07:08:34.538Z,100803.94
2022-08-03T07:13:38.159Z,100800.44
2022-08-03T07:18:41.814Z,100801.91
2022-08-03T07:23:46.630Z,100803.16
2022-08-03T07:28:50.085Z,100802.72
2022-08-03T07:33:53.678Z,100812.25
2022-08-03T07:38:59.043Z,100807.25
2022-08-03T07:44:02.478Z,100812.81
2022-08-03T07:49:06.218Z,100811.06
2022-08-03T07:54:11.136Z,100810.78
2022-08-03T07:59:14.599Z,100802.47
2022-08-03T08:04:18.012Z,100798.09
2022-08-03T08:09:23.410Z,100799.53
2022-08-03T08:14:27.199Z,100797.03
2022-08-03T08:19:30.675Z,100794.25
2022-08-03T08:24:40.144Z,100787.81
2022-08-03T08:29:47.775Z,100788.53
2022-08-03T08:34:57.811Z,100780.72
2022-08-03T08:40:02.861Z,100792.22
2022-08-03T08:45:08.687Z,100790.34
2022-08-03T08:50:21.622Z,100782.16
2022-08-03T08:55:58.840Z,100780.44
2022-08-03T09:00:56.795Z,100785.41
2022-08-03T09:06:02.084Z,100787.50
2022-08-03T09:11:07.504Z,100784.13
2022-08-03T09:16:13.750Z,100774.88
2022-08-03T09:21:36.258Z,100776.25
2022-08-03T09:26:41.272Z,100785.28
2022-08-03T09:31:46.717Z,100784.38
2022-08-03T09:36:53.898Z,100781.19
2022-08-03T09:42:09.115Z,100781.63
2022-08-03T09:47:14.152Z,100775.97
2022-08-03T09:52:31.835Z,100778.63
2022-08-03T09:57:40.767Z,100775.44
2022-08-03T10:02:50.473Z,100776.88
2022-08-03T10:07:53.955Z,100761.09
2022-08-03T10:12:59.161Z,100761.91
2022-08-03T10:18:02.822Z,100765.94
2022-08-03T10:23:06.561Z,100759.59
2022-08-03T10:28:14.925Z,100759.06
2022-08-03T10:33:51.416Z,100752.47
2022-08-03T10:38:46.735Z,100748.06
2022-08-03T10:43:54.558Z,100751.56
2022-08-03T10:48:58.569Z,100735.66
2022-08-03T10:54:02.299Z,100738.16
2022-08-03T10:59:08.824Z,100737.50
2022-08-03T11:04:18.034Z,100740.53
2022-08-03T11:09:21.491Z,100729.09
2022-08-03T11:14:26.329Z,100731.47
2022-08-03T11:19:56.575Z,100731.56
2022-08-03T11:25:02.070Z,100728.28
2022-08-03T11:30:08.447Z,100726.44
2022-08-03T11:35:13.011Z,100728.25
2022-08-03T11:40:34.417Z,100725.41
2022-08-03T11:45:39.309Z,100713.38
2022-08-03T11:50:45.177Z,100722.59
2022-08-03T11:55:49.893Z,100719.63
2022-08-03T12:00:58.112Z,100718.56
2022-08-03T12:06:02.377Z,100717.75
2022-08-03T12:11:10.254Z,100712.53
2022-08-03T12:16:20.711Z,100704.41
2022-08-03T12:21:25.057Z,100708.88
2022-08-03T12:26:29.042Z,100697.28
2022-08-03T12:31:33.878Z,100686.63
2022-08-03T12:36:39.082Z,100700.84
2022-08-03T12:41:42.539Z,100700.88
2022-08-03T12:46:48.181Z,100695.41
2022-08-03T12:51:58.007Z,100692.03
2022-08-03T12:57:02.386Z,100686.34
2022-08-03T13:02:09.364Z,100690.28
2022-08-03T13:07:14.689Z,100691.69
2022-08-03T13:12:20.963Z,100687.00
2022-08-03T13:17:26.696Z,100686.47
2022-08-03T13:22:30.252Z,100689.56
2022-08-03T13:28:04.079Z,100684.16
2022-08-03T13:33:00.493Z,100682.41
2022-08-03T13:38:04.036Z,100673.72
2022-08-03T13:43:07.894Z,100663.63
2022-08-03T13:48:12.899Z,100661.19
2022-08-03T13:53:16.335Z,100648.44
2022-08-03T13:58:19.972Z,100643.59
2022-08-03T14:03:24.840Z,100631.84
2022-08-03T14:08:28.268Z,100642.38
2022-08-03T14:13:31.697Z,100633.00
2022-08-03T14:18:36.647Z,100627.88
2022-08-03T14:23:44.876Z,100627.31
2022-08-03T14:28:48.408Z,100628.03
2022-08-03T14:33:53.219Z,100621.97
2022-08-03T14:39:01.076Z,100630.28
2022-08-03T14:44:05.298Z,100625.25
2022-08-03T14:50:38.587Z,100611.03
2022-08-03T14:54:33.730Z,100603.78
2022-08-03T14:59:55.495Z,100616.34
2022-08-03T15:05:02.124Z,100614.91
2022-08-03T15:10:06.458Z,100607.78
2022-08-03T15:15:10.645Z,100592.44
2022-08-03T15:20:24.211Z,100589.56
2022-08-03T15:26:28.282Z,100585.31
2022-08-03T15:30:56.155Z,100589.22
2022-08-03T15:36:01.025Z,100583.06
2022-08-03T15:41:04.563Z,100577.47
2022-08-03T15:51:33.047Z,100569.72
2022-08-03T15:56:36.614Z,100576.50
2022-08-03T16:01:40.179Z,100563.22
2022-08-03T16:06:45.319Z,100564.84
2022-08-03T16:11:48.727Z,100567.19
2022-08-03T16:16:53.339Z,100567.59
2022-08-03T16:21:58.274Z,100573.72
2022-08-03T16:27:01.751Z,100573.06
2022-08-03T16:32:09.615Z,100571.97
2022-08-03T16:37:37.107Z,100571.84
2022-08-03T16:42:38.191Z,100563.78
2022-08-03T16:47:41.579Z,100570.31
2022-08-03T16:52:47.268Z,100568.94
2022-08-03T16:57:59.003Z,100570.69
2022-08-03T17:03:18.954Z,100575.00
2022-08-03T17:08:26.692Z,100563.00
2022-08-03T17:13:39.895Z,100577.66
2022-08-03T17:18:48.559Z,100568.97
2022-08-03T17:23:56.969Z,100578.09
2022-08-03T17:29:11.472Z,100578.28
2022-08-03T17:34:17.350Z,100574.47
2022-08-03T17:39:55.815Z,100581.22
2022-08-03T17:44:53.035Z,100582.50
2022-08-03T17:49:56.897Z,100585.19
2022-08-03T17:55:55.682Z,100585.50
2022-08-03T18:00:52.133Z,100586.59
2022-08-03T18:06:12.003Z,100589.91
2022-08-03T18:11:21.594Z,100592.09
2022-08-03T18:16:29.099Z,100588.81
2022-08-03T18:22:03.419Z,100585.53
2022-08-03T18:27:02.267Z,100595.72
2022-08-03T18:32:12.952Z,100593.22
2022-08-03T18:37:21.733Z,100591.66
2022-08-03T18:42:32.203Z,100593.28
2022-08-03T18:47:54.039Z,100590.22
2022-08-03T18:53:15.499Z,100597.25
2022-08-03T18:58:27.051Z,100600.53
2022-08-03T19:03:41.592Z,100608.56
2022-08-03T19:08:49.509Z,100610.78
2022-08-03T19:13:57.375Z,100618.66
2022-08-03T19:19:01.941Z,100619.41
2022-08-03T19:24:09.899Z,100628.78
2022-08-03T19:29:16.372Z,100625.63
2022-08-03T19:34:20.434Z,100633.38
2022-08-03T19:39:27.805Z,100625.69
2022-08-03T19:44:35.322Z,100626.78
2022-08-03T19:50:06.025Z,100630.56
2022-08-03T19:55:09.299Z,100626.25
2022-08-03T20:00:19.858Z,100638.16
2022-08-03T20:05:23.857Z,100637.19
2022-08-03T20:10:30.505Z,100635.06
2022-08-03T20:15:41.416Z,100645.66
2022-08-03T20:20:47.357Z,100638.91
2022-08-03T20:25:58.673Z,100640.22
2022-08-03T20:31:03.786Z,100634.41
2022-08-03T20:36:10.281Z,100643.00
2022-08-03T20:41:14.799Z,100649.75
2022-08-03T20:46:29.447Z,100651.66
2022-08-03T20:51:52.663Z,100652.06
2022-08-03T20:56:57.766Z,100653.00
2022-08-03T21:02:03.022Z,100659.84
2022-08-03T21:07:16.327Z,100660.56
2022-08-03T21:12:28.863Z,100651.72
2022-08-03T21:17:40.799Z,100662.50
2022-08-03T21:22:47.358Z,100656.81
2022-08-03T21:27:52.558Z,100653.25
2022-08-03T21:32:59.017Z,100650.81
2022-08-03T21:38:21.075Z,100655.06
2022-08-03T21:43:33.910Z,100652.44
2022-08-03T21:48:39.713Z,100655.00
2022-08-03T21:54:02.770Z,100656.78
2022-08-03T21:59:08.972Z,100649.97
2022-08-03T22:04:55.354Z,100654.06
2022-08-03T22:09:40.846Z,100649.53
2022-08-03T22:15:01.400Z,100655.50
2022-08-03T22:20:11.015Z,100657.28
2022-08-03T22:25:15.837Z,100648.84
2022-08-03T22:30:20.520Z,100650.38
2022-08-03T22:35:26.477Z,100659.16
2022-08-03T22:40:30.126Z,100658.63
2022-08-03T22:46:07.332Z,100660.97
2022-08-03T22:50:58.830Z,100674.56
2022-08-03T22:56:02.403Z,100667.78
2022-08-03T23:01:09.371Z,100670.72
2022-08-03T23:06:15.507Z,100671.13
2022-08-03T23:11:19.574Z,100670.72
2022-08-03T23:16:28.633Z,100668.25
2022-08-03T23:21:53.566Z,100666.63
2022-08-03T23:26:58.973Z,100667.09
2022-08-03T23:32:02.830Z,100664.16
2022-08-03T23:37:07.756Z,100657.50
2022-08-03T23:42:12.270Z,100657.50
2022-08-03T23:47:15.851Z,100656.25
2022-08-03T23:52:30.284Z,100655.91
2022-08-03T23:57:38.530Z,100654.63
